createdAt,value
2023-01-31T00:00:35.307Z,93.37
2023-01-31T00:01:35.139Z,92.99
2023-01-31T00:02:35.142Z,93.27
2023-01-31T00:03:35.308Z,92.71
2023-01-31T00:04:35.075Z,92.52
2023-01-31T00:05:35.104Z,92.52
2023-01-31T00:06:35.137Z,92.42
2023-01-31T00:07:35.003Z,92.42
2023-01-31T00:08:35.070Z,92.52
2023-01-31T00:09:35.118Z,92.71
2023-01-31T00:10:34.897Z,92.90
2023-01-31T00:11:35.037Z,92.42
2023-01-31T00:12:35.039Z,92.61
2023-01-31T00:13:34.922Z,92.71
2023-01-31T00:14:34.845Z,92.52
2023-01-31T00:15:35.039Z,92.52
2023-01-31T00:16:34.176Z,92.42
2023-01-31T00:17:34.093Z,92.61
2023-01-31T00:18:34.029Z,92.85
2023-01-31T00:19:33.971Z,92.71
2023-01-31T00:20:33.899Z,92.61
2023-01-31T00:21:33.864Z,92.80
2023-01-31T00:22:33.778Z,92.52
2023-01-31T00:23:33.715Z,92.42
2023-01-31T00:24:33.652Z,92.04
2023-01-31T00:25:33.591Z,92.14
2023-01-31T00:26:33.558Z,92.09
2023-01-31T00:27:33.470Z,92.42
2023-01-31T00:28:33.407Z,92.42
2023-01-31T00:29:33.343Z,92.61
2023-01-31T00:30:33.286Z,92.23
2023-01-31T00:31:33.430Z,92.47
2023-01-31T00:32:33.159Z,92.94
2023-01-31T00:33:33.098Z,92.42
2023-01-31T00:34:33.028Z,92.47
2023-01-31T00:35:32.979Z,92.23
2023-01-31T00:36:32.910Z,92.71
2023-01-31T00:37:32.847Z,92.23
2023-01-31T00:38:32.788Z,92.04
2023-01-31T00:39:32.720Z,92.33
2023-01-31T00:40:32.662Z,92.71
2023-01-31T00:41:32.610Z,92.71
2023-01-31T00:42:32.535Z,92.47
2023-01-31T00:43:32.476Z,92.28
2023-01-31T00:44:32.469Z,92.33
2023-01-31T00:45:32.351Z,92.28
2023-01-31T00:46:32.325Z,92.23
2023-01-31T00:47:32.232Z,92.04
2023-01-31T00:48:32.166Z,92.71
2023-01-31T00:49:32.113Z,92.47
2023-01-31T00:50:32.038Z,92.56
2023-01-31T00:51:32.063Z,92.90
2023-01-31T00:52:31.946Z,92.80
2023-01-31T00:53:31.863Z,92.33
2023-01-31T00:54:31.802Z,92.56
2023-01-31T00:55:31.732Z,92.71
2023-01-31T00:56:31.668Z,92.66
2023-01-31T00:57:31.609Z,92.71
2023-01-31T00:58:31.541Z,92.71
2023-01-31T00:59:31.486Z,92.71
2023-01-31T01:00:31.439Z,92.47
2023-01-31T01:01:31.358Z,92.09
2023-01-31T01:02:31.292Z,92.71
2023-01-31T01:03:31.239Z,92.42
2023-01-31T01:04:31.182Z,92.75
2023-01-31T01:05:31.114Z,92.42
2023-01-31T01:06:31.050Z,92.80
2023-01-31T01:07:30.988Z,92.28
2023-01-31T01:08:30.925Z,92.18
2023-01-31T01:09:30.867Z,92.42
2023-01-31T01:10:30.808Z,92.14
2023-01-31T01:11:30.744Z,92.14
2023-01-31T01:12:30.688Z,92.99
2023-01-31T01:13:30.612Z,92.47
2023-01-31T01:14:30.562Z,92.94
2023-01-31T01:15:30.491Z,92.85
2023-01-31T01:16:30.500Z,92.47
2023-01-31T01:17:30.371Z,92.80
2023-01-31T01:18:30.309Z,92.85
2023-01-31T01:19:30.254Z,92.42
2023-01-31T01:20:30.180Z,92.80
2023-01-31T01:21:30.134Z,92.80
2023-01-31T01:22:30.056Z,92.66
2023-01-31T01:23:30.005Z,92.94
2023-01-31T01:24:29.934Z,92.85
2023-01-31T01:25:30.383Z,92.80
2023-01-31T01:26:30.531Z,92.85
2023-01-31T01:27:30.293Z,92.47
2023-01-31T01:28:30.216Z,92.47
2023-01-31T01:29:30.022Z,92.85
2023-01-31T01:30:30.095Z,92.42
2023-01-31T01:31:30.127Z,92.85
2023-01-31T01:32:29.889Z,92.85
2023-01-31T01:33:29.622Z,92.56
2023-01-31T01:34:29.486Z,92.61
2023-01-31T01:35:29.349Z,92.85
2023-01-31T01:36:29.397Z,92.80
2023-01-31T01:37:29.221Z,92.42
2023-01-31T01:38:29.261Z,92.75
2023-01-31T01:39:29.004Z,92.47
2023-01-31T01:40:28.941Z,92.47
2023-01-31T01:41:28.889Z,92.56
2023-01-31T01:42:28.834Z,92.52
2023-01-31T01:43:28.759Z,92.04
2023-01-31T01:44:28.690Z,92.28
2023-01-31T01:45:28.670Z,92.33
2023-01-31T01:46:28.568Z,92.47
2023-01-31T01:47:29.194Z,92.42
2023-01-31T01:48:29.192Z,92.47
2023-01-31T01:49:28.824Z,92.18
2023-01-31T01:50:28.713Z,92.28
2023-01-31T01:51:28.609Z,92.75
2023-01-31T01:52:28.515Z,92.18
2023-01-31T01:53:28.500Z,92.04
2023-01-31T01:54:28.615Z,92.04
2023-01-31T01:55:28.247Z,92.23
2023-01-31T01:56:28.148Z,92.56
2023-01-31T01:57:28.155Z,92.75
2023-01-31T01:58:27.862Z,92.18
2023-01-31T01:59:27.838Z,91.99
2023-01-31T02:00:27.717Z,92.52
2023-01-31T02:01:27.673Z,92.09
2023-01-31T02:02:27.647Z,92.04
2023-01-31T02:03:27.511Z,92.18
2023-01-31T02:04:27.457Z,92.09
2023-01-31T02:05:27.392Z,92.14
2023-01-31T02:06:27.328Z,92.47
2023-01-31T02:07:27.965Z,92.47
2023-01-31T02:08:27.705Z,92.04
2023-01-31T02:09:27.636Z,92.14
2023-01-31T02:10:27.593Z,92.09
2023-01-31T02:11:27.398Z,92.09
2023-01-31T02:12:27.228Z,92.14
2023-01-31T02:13:27.203Z,92.04
2023-01-31T02:14:27.031Z,92.18
2023-01-31T02:15:26.994Z,92.37
2023-01-31T02:16:26.933Z,92.14
2023-01-31T02:17:26.808Z,92.42
2023-01-31T02:18:26.728Z,92.85
2023-01-31T02:19:26.564Z,92.47
2023-01-31T02:20:26.462Z,92.42
2023-01-31T02:21:26.537Z,92.23
2023-01-31T02:22:26.395Z,92.09
2023-01-31T02:23:26.291Z,92.18
2023-01-31T02:24:26.216Z,92.04
2023-01-31T02:25:26.155Z,92.37
2023-01-31T02:26:26.127Z,92.18
2023-01-31T02:27:26.027Z,92.18
2023-01-31T02:28:25.970Z,92.09
2023-01-31T02:29:25.906Z,92.18
2023-01-31T02:30:26.455Z,92.18
2023-01-31T02:31:26.402Z,92.33
2023-01-31T02:32:26.181Z,91.94
2023-01-31T02:33:25.959Z,92.14
2023-01-31T02:34:25.986Z,92.09
2023-01-31T02:35:25.722Z,92.37
2023-01-31T02:36:25.709Z,91.99
2023-01-31T02:37:25.622Z,92.23
2023-01-31T02:38:25.485Z,92.18
2023-01-31T02:39:25.301Z,92.23
2023-01-31T02:40:25.405Z,92.37
2023-01-31T02:41:25.159Z,92.28
2023-01-31T02:42:25.139Z,92.37
2023-01-31T02:43:25.039Z,92.33
2023-01-31T02:44:24.972Z,92.04
2023-01-31T02:45:24.913Z,92.47
2023-01-31T02:46:24.855Z,92.42
2023-01-31T02:47:24.795Z,92.47
2023-01-31T02:48:25.405Z,92.09
2023-01-31T02:49:24.661Z,92.09
2023-01-31T02:50:24.608Z,92.37
2023-01-31T02:51:24.543Z,92.85
2023-01-31T02:52:24.479Z,92.18
2023-01-31T02:53:24.419Z,92.18
2023-01-31T02:54:24.352Z,92.28
2023-01-31T02:55:24.388Z,92.09
2023-01-31T02:56:24.239Z,92.18
2023-01-31T02:57:24.172Z,92.28
2023-01-31T02:58:24.276Z,92.42
2023-01-31T02:59:24.050Z,92.47
2023-01-31T03:00:24.008Z,92.85
2023-01-31T03:01:23.950Z,92.85
2023-01-31T03:02:23.918Z,92.56
2023-01-31T03:03:23.801Z,92.47
2023-01-31T03:04:23.745Z,92.47
2023-01-31T03:05:24.218Z,92.37
2023-01-31T03:06:23.627Z,92.85
2023-01-31T03:07:23.552Z,92.85
2023-01-31T03:08:23.493Z,92.85
2023-01-31T03:09:23.428Z,92.47
2023-01-31T03:10:23.370Z,92.94
2023-01-31T03:11:23.315Z,92.42
2023-01-31T03:12:23.251Z,92.85
2023-01-31T03:13:23.179Z,92.56
2023-01-31T03:14:23.120Z,92.47
2023-01-31T03:15:23.884Z,92.47
2023-01-31T03:16:23.004Z,92.75
2023-01-31T03:17:22.933Z,92.80
2023-01-31T03:18:22.878Z,92.66
2023-01-31T03:19:22.807Z,92.66
2023-01-31T03:20:22.749Z,92.85
2023-01-31T03:21:22.689Z,92.47
2023-01-31T03:22:22.622Z,92.47
2023-01-31T03:23:22.566Z,92.47
2023-01-31T03:24:22.503Z,92.66
2023-01-31T03:25:22.994Z,92.66
2023-01-31T03:26:22.437Z,92.75
2023-01-31T03:27:22.315Z,92.56
2023-01-31T03:28:22.251Z,92.66
2023-01-31T03:29:22.187Z,92.66
2023-01-31T03:30:22.133Z,92.66
2023-01-31T03:31:22.167Z,92.47
2023-01-31T03:32:22.007Z,92.47
2023-01-31T03:33:21.939Z,92.80
2023-01-31T03:34:21.880Z,92.94
2023-01-31T03:35:22.124Z,92.66
2023-01-31T03:36:21.763Z,92.47
2023-01-31T03:37:21.735Z,92.75
2023-01-31T03:38:21.634Z,92.75
2023-01-31T03:39:21.571Z,92.85
2023-01-31T03:40:21.545Z,92.85
2023-01-31T03:41:21.444Z,92.85
2023-01-31T03:42:21.392Z,92.47
2023-01-31T03:43:21.371Z,92.66
2023-01-31T03:44:21.257Z,92.56
2023-01-31T03:45:21.555Z,92.66
2023-01-31T03:46:22.739Z,92.75
2023-01-31T03:47:21.069Z,92.94
2023-01-31T03:48:21.019Z,92.66
2023-01-31T03:49:20.956Z,92.75
2023-01-31T03:50:20.890Z,93.04
2023-01-31T03:51:20.823Z,92.94
2023-01-31T03:52:20.770Z,92.75
2023-01-31T03:53:20.697Z,92.75
2023-01-31T03:54:20.646Z,92.66
2023-01-31T03:55:20.986Z,92.66
2023-01-31T03:56:20.517Z,92.66
2023-01-31T03:57:20.455Z,92.75
2023-01-31T03:58:20.391Z,93.32
2023-01-31T03:59:20.347Z,93.04
2023-01-31T04:00:20.288Z,92.75
2023-01-31T04:01:20.242Z,92.75
2023-01-31T04:02:20.147Z,93.41
2023-01-31T04:03:20.081Z,93.13
2023-01-31T04:04:41.013Z,93.23
2023-01-31T04:05:20.219Z,93.23
2023-01-31T04:06:19.903Z,92.66
2023-01-31T04:07:19.842Z,93.23
2023-01-31T04:08:19.769Z,93.41
2023-01-31T04:09:22.093Z,93.32
2023-01-31T04:10:19.656Z,93.41
2023-01-31T04:11:19.589Z,93.23
2023-01-31T04:12:19.523Z,93.04
2023-01-31T04:13:19.461Z,93.04
2023-01-31T04:14:19.397Z,93.32
2023-01-31T04:15:19.653Z,93.51
2023-01-31T04:16:19.307Z,93.32
2023-01-31T04:17:19.216Z,93.18
2023-01-31T04:18:19.171Z,93.18
2023-01-31T04:19:19.095Z,93.41
2023-01-31T04:20:19.034Z,93.23
2023-01-31T04:21:18.974Z,93.23
2023-01-31T04:22:18.907Z,93.23
2023-01-31T04:23:18.851Z,93.32
2023-01-31T04:24:18.788Z,93.32
2023-01-31T04:25:19.162Z,92.94
2023-01-31T04:26:18.693Z,93.41
2023-01-31T04:27:18.600Z,93.23
2023-01-31T04:28:18.540Z,93.23
2023-01-31T04:29:18.482Z,93.08
2023-01-31T04:30:18.411Z,93.04
2023-01-31T04:31:18.496Z,93.41
2023-01-31T04:32:18.349Z,93.13
2023-01-31T04:33:18.227Z,93.13
2023-01-31T04:34:18.163Z,93.04
2023-01-31T04:35:18.573Z,92.99
2023-01-31T04:36:18.041Z,93.04
2023-01-31T04:37:17.989Z,93.04
2023-01-31T04:38:17.913Z,93.23
2023-01-31T04:39:20.393Z,93.13
2023-01-31T04:40:17.794Z,93.23
2023-01-31T04:41:17.730Z,93.18
2023-01-31T04:42:17.664Z,93.13
2023-01-31T04:43:17.609Z,92.94
2023-01-31T04:44:17.551Z,93.23
2023-01-31T04:45:17.486Z,93.23
2023-01-31T04:46:17.454Z,92.94
2023-01-31T04:47:17.371Z,93.04
2023-01-31T04:48:17.298Z,92.99
2023-01-31T04:49:17.236Z,92.80
2023-01-31T04:50:17.176Z,92.85
2023-01-31T04:51:17.115Z,92.94
2023-01-31T04:52:17.048Z,92.85
2023-01-31T04:53:17.009Z,93.23
2023-01-31T04:54:16.926Z,93.23
2023-01-31T04:55:16.863Z,92.85
2023-01-31T04:56:16.802Z,92.75
2023-01-31T04:57:16.741Z,92.94
2023-01-31T04:58:16.681Z,92.94
2023-01-31T04:59:16.622Z,92.94
2023-01-31T05:00:16.557Z,93.04
2023-01-31T05:01:16.556Z,93.04
2023-01-31T05:02:16.427Z,92.75
2023-01-31T05:03:16.376Z,93.04
2023-01-31T05:04:16.313Z,93.04
2023-01-31T05:05:16.251Z,93.04
2023-01-31T05:06:16.179Z,92.94
2023-01-31T05:07:16.138Z,93.18
2023-01-31T05:08:16.054Z,92.85
2023-01-31T05:09:16.013Z,92.85
2023-01-31T05:10:15.937Z,92.94
2023-01-31T05:11:15.871Z,92.94
2023-01-31T05:12:15.809Z,92.90
2023-01-31T05:13:15.746Z,92.85
2023-01-31T05:14:15.685Z,93.04
2023-01-31T05:15:15.632Z,92.85
2023-01-31T05:16:15.626Z,93.04
2023-01-31T05:17:15.498Z,93.23
2023-01-31T05:18:15.443Z,92.94
2023-01-31T05:19:15.386Z,93.13
2023-01-31T05:20:15.315Z,93.13
2023-01-31T05:21:15.254Z,92.94
2023-01-31T05:22:15.194Z,92.85
2023-01-31T05:23:15.130Z,92.94
2023-01-31T05:24:15.071Z,93.13
2023-01-31T05:25:15.008Z,93.04
2023-01-31T05:26:15.010Z,93.13
2023-01-31T05:27:14.896Z,92.85
2023-01-31T05:28:14.823Z,92.85
2023-01-31T05:29:14.763Z,92.85
2023-01-31T05:30:14.726Z,92.85
2023-01-31T05:31:14.731Z,92.71
2023-01-31T05:32:14.594Z,93.13
2023-01-31T05:33:14.521Z,93.23
2023-01-31T05:34:14.490Z,92.94
2023-01-31T05:35:14.437Z,92.85
2023-01-31T05:36:14.375Z,93.04
2023-01-31T05:37:14.320Z,93.13
2023-01-31T05:38:14.311Z,92.85
2023-01-31T05:39:14.212Z,92.94
2023-01-31T05:40:14.236Z,93.13
2023-01-31T05:41:14.036Z,93.04
2023-01-31T05:42:13.969Z,92.85
2023-01-31T05:43:13.897Z,92.94
2023-01-31T05:44:13.861Z,93.23
2023-01-31T05:45:13.773Z,93.04
2023-01-31T05:46:13.743Z,93.04
2023-01-31T05:47:13.648Z,93.23
2023-01-31T05:48:13.577Z,93.18
2023-01-31T05:49:13.526Z,93.04
2023-01-31T05:50:13.461Z,93.13
2023-01-31T05:51:13.408Z,92.94
2023-01-31T05:52:13.334Z,93.13
2023-01-31T05:53:13.271Z,93.13
2023-01-31T05:54:13.225Z,93.13
2023-01-31T05:55:13.157Z,93.13
2023-01-31T05:56:13.086Z,93.13
2023-01-31T05:57:13.024Z,92.85
2023-01-31T05:58:12.963Z,93.13
2023-01-31T05:59:12.907Z,92.94
2023-01-31T06:00:12.842Z,93.13
2023-01-31T06:01:12.775Z,92.94
2023-01-31T06:02:12.723Z,92.85
2023-01-31T06:03:12.677Z,93.04
2023-01-31T06:04:12.592Z,92.85
2023-01-31T06:05:12.536Z,92.90
2023-01-31T06:06:12.466Z,93.23
2023-01-31T06:07:12.450Z,92.85
2023-01-31T06:08:12.344Z,92.80
2023-01-31T06:09:12.282Z,92.94
2023-01-31T06:10:12.251Z,93.23
2023-01-31T06:11:12.179Z,93.23
2023-01-31T06:12:12.106Z,93.13
2023-01-31T06:13:12.038Z,93.04
2023-01-31T06:14:11.970Z,93.13
2023-01-31T06:15:11.911Z,92.94
2023-01-31T06:16:11.893Z,93.23
2023-01-31T06:17:11.785Z,93.13
2023-01-31T06:18:11.733Z,93.23
2023-01-31T06:19:11.668Z,93.23
2023-01-31T06:20:11.603Z,93.04
2023-01-31T06:21:11.535Z,92.75
2023-01-31T06:22:11.479Z,93.13
2023-01-31T06:23:11.424Z,93.04
2023-01-31T06:24:11.353Z,92.85
2023-01-31T06:25:11.304Z,93.04
2023-01-31T06:26:11.231Z,93.13
2023-01-31T06:27:11.169Z,93.04
2023-01-31T06:28:11.107Z,93.13
2023-01-31T06:29:11.050Z,93.04
2023-01-31T06:30:10.985Z,93.13
2023-01-31T06:31:11.026Z,93.13
2023-01-31T06:32:10.863Z,93.23
2023-01-31T06:33:10.802Z,93.04
2023-01-31T06:34:10.734Z,93.13
2023-01-31T06:35:10.679Z,93.23
2023-01-31T06:36:10.615Z,93.04
2023-01-31T06:37:10.546Z,92.66
2023-01-31T06:38:10.484Z,92.94
2023-01-31T06:39:10.437Z,93.41
2023-01-31T06:40:10.369Z,92.94
2023-01-31T06:41:10.297Z,93.13
2023-01-31T06:42:10.245Z,93.23
2023-01-31T06:43:10.179Z,93.04
2023-01-31T06:44:10.116Z,93.23
2023-01-31T06:45:10.067Z,93.23
2023-01-31T06:46:10.008Z,92.66
2023-01-31T06:47:09.929Z,93.04
2023-01-31T06:48:09.873Z,93.04
2023-01-31T06:49:09.804Z,93.23
2023-01-31T06:50:09.747Z,93.23
2023-01-31T06:51:09.693Z,93.04
2023-01-31T06:52:09.621Z,93.13
2023-01-31T06:53:09.560Z,93.13
2023-01-31T06:54:12.391Z,93.23
2023-01-31T06:55:09.435Z,93.04
2023-01-31T06:56:09.379Z,93.13
2023-01-31T06:57:09.309Z,93.04
2023-01-31T06:58:09.249Z,93.04
2023-01-31T06:59:09.191Z,93.32
2023-01-31T07:00:09.125Z,93.51
2023-01-31T07:01:09.087Z,93.23
2023-01-31T07:02:09.000Z,93.41
2023-01-31T07:03:08.942Z,93.32
2023-01-31T07:04:08.877Z,93.23
2023-01-31T07:05:08.875Z,92.75
2023-01-31T07:06:08.756Z,92.66
2023-01-31T07:07:08.691Z,92.75
2023-01-31T07:08:08.629Z,92.66
2023-01-31T07:09:08.568Z,92.56
2023-01-31T07:10:08.520Z,93.04
2023-01-31T07:11:08.445Z,92.94
2023-01-31T07:12:08.386Z,92.66
2023-01-31T07:13:08.314Z,92.56
2023-01-31T07:14:08.254Z,92.56
2023-01-31T07:15:08.195Z,92.56
2023-01-31T07:16:08.187Z,92.66
2023-01-31T07:17:08.079Z,92.66
2023-01-31T07:18:08.006Z,92.56
2023-01-31T07:19:07.952Z,92.71
2023-01-31T07:20:07.884Z,92.66
2023-01-31T07:21:07.822Z,92.66
2023-01-31T07:22:07.762Z,92.61
2023-01-31T07:23:07.707Z,92.75
2023-01-31T07:24:07.636Z,92.94
2023-01-31T07:25:07.574Z,92.52
2023-01-31T07:26:07.529Z,92.56
2023-01-31T07:27:07.447Z,92.66
2023-01-31T07:28:07.394Z,92.85
2023-01-31T07:29:07.321Z,92.75
2023-01-31T07:30:07.264Z,92.47
2023-01-31T07:31:07.208Z,92.47
2023-01-31T07:32:07.149Z,92.56
2023-01-31T07:33:07.076Z,92.47
2023-01-31T07:34:07.023Z,92.85
2023-01-31T07:35:06.963Z,92.56
2023-01-31T07:36:06.918Z,92.28
2023-01-31T07:37:06.828Z,92.28
2023-01-31T07:38:06.775Z,92.75
2023-01-31T07:39:06.706Z,92.28
2023-01-31T07:40:06.649Z,92.28
2023-01-31T07:41:06.591Z,92.75
2023-01-31T07:42:06.533Z,92.28
2023-01-31T07:43:06.457Z,92.28
2023-01-31T07:44:06.398Z,92.37
2023-01-31T07:45:22.115Z,92.18
2023-01-31T07:46:06.341Z,92.37
2023-01-31T07:47:06.215Z,92.28
2023-01-31T07:48:06.160Z,92.28
2023-01-31T07:49:06.087Z,91.99
2023-01-31T07:50:06.033Z,92.37
2023-01-31T07:51:05.965Z,92.18
2023-01-31T07:52:07.972Z,92.18
2023-01-31T07:53:05.839Z,92.28
2023-01-31T07:54:05.780Z,92.09
2023-01-31T07:55:05.720Z,91.99
2023-01-31T07:56:05.658Z,91.99
2023-01-31T07:57:05.605Z,92.09
2023-01-31T07:58:06.414Z,92.18
2023-01-31T07:59:05.466Z,92.18
2023-01-31T08:00:05.407Z,92.28
2023-01-31T08:01:05.419Z,92.28
2023-01-31T08:02:05.290Z,92.18
2023-01-31T08:03:05.220Z,92.18
2023-01-31T08:04:20.129Z,92.18
2023-01-31T08:05:05.201Z,92.18
2023-01-31T08:06:05.038Z,92.18
2023-01-31T08:07:04.973Z,92.47
2023-01-31T08:08:04.916Z,92.18
2023-01-31T08:09:04.907Z,92.18
2023-01-31T08:10:04.795Z,91.80
2023-01-31T08:11:04.751Z,91.89
2023-01-31T08:12:04.669Z,91.71
2023-01-31T08:13:04.603Z,92.28
2023-01-31T08:14:04.554Z,92.28
2023-01-31T08:15:04.491Z,92.28
2023-01-31T08:16:04.418Z,92.28
2023-01-31T08:17:04.386Z,92.09
2023-01-31T08:18:06.298Z,92.28
2023-01-31T08:19:04.243Z,92.18
2023-01-31T08:20:04.179Z,91.89
2023-01-31T08:21:04.115Z,92.18
2023-01-31T08:22:04.046Z,92.47
2023-01-31T08:23:03.984Z,92.47
2023-01-31T08:24:03.960Z,92.47
2023-01-31T08:25:03.861Z,92.47
2023-01-31T08:26:03.801Z,92.28
2023-01-31T08:27:03.738Z,92.09
2023-01-31T08:28:03.678Z,92.47
2023-01-31T08:29:03.612Z,91.99
2023-01-31T08:30:03.555Z,92.09
2023-01-31T08:31:09.033Z,91.99
2023-01-31T08:32:03.560Z,91.89
2023-01-31T08:33:03.363Z,91.99
2023-01-31T08:34:03.315Z,92.28
2023-01-31T08:35:03.240Z,92.18
2023-01-31T08:36:03.178Z,91.89
2023-01-31T08:37:03.144Z,92.09
2023-01-31T08:38:15.762Z,91.71
2023-01-31T08:39:03.034Z,91.89
2023-01-31T08:40:02.939Z,91.80
2023-01-31T08:41:02.873Z,91.80
2023-01-31T08:42:02.808Z,92.09
2023-01-31T08:43:02.740Z,91.71
2023-01-31T08:44:04.595Z,91.80
2023-01-31T08:45:02.620Z,91.71
2023-01-31T08:46:02.567Z,91.80
2023-01-31T08:47:02.588Z,91.80
2023-01-31T08:48:02.433Z,92.18
2023-01-31T08:49:02.367Z,91.80
2023-01-31T08:50:02.312Z,92.09
2023-01-31T08:51:02.251Z,91.71
2023-01-31T08:52:02.193Z,91.99
2023-01-31T08:53:02.121Z,91.80
2023-01-31T08:54:02.095Z,91.80
2023-01-31T08:55:02.001Z,91.89
2023-01-31T08:56:01.942Z,91.99
2023-01-31T08:57:01.880Z,91.71
2023-01-31T08:58:01.815Z,92.18
2023-01-31T08:59:01.755Z,91.99
2023-01-31T09:00:01.695Z,92.18
2023-01-31T09:01:01.628Z,92.09
2023-01-31T09:02:01.577Z,92.28
2023-01-31T09:03:01.563Z,92.47
2023-01-31T09:04:01.450Z,91.89
2023-01-31T09:05:01.385Z,91.89
2023-01-31T09:06:01.333Z,91.99
2023-01-31T09:07:01.258Z,91.80
2023-01-31T09:08:01.199Z,91.71
2023-01-31T09:09:01.136Z,91.71
2023-01-31T09:10:01.079Z,91.71
2023-01-31T09:11:01.016Z,91.80
2023-01-31T09:12:00.957Z,91.80
2023-01-31T09:13:00.892Z,91.71
2023-01-31T09:14:00.841Z,92.09
2023-01-31T09:15:00.767Z,92.09
2023-01-31T09:16:00.711Z,91.80
2023-01-31T09:17:00.684Z,92.18
2023-01-31T09:18:00.593Z,91.80
2023-01-31T09:19:00.528Z,92.09
2023-01-31T09:20:00.461Z,91.71
2023-01-31T09:21:00.390Z,92.09
2023-01-31T09:22:00.352Z,92.09
2023-01-31T09:23:00.274Z,91.71
2023-01-31T09:24:00.215Z,91.99
2023-01-31T09:25:00.146Z,91.89
2023-01-31T09:26:00.120Z,91.89
2023-01-31T09:27:00.028Z,91.89
2023-01-31T09:27:59.959Z,92.09
2023-01-31T09:28:59.897Z,92.09
2023-01-31T09:29:59.846Z,92.09
2023-01-31T09:30:59.884Z,91.89
2023-01-31T09:31:59.831Z,92.09
2023-01-31T09:32:59.653Z,91.89
2023-01-31T09:33:59.613Z,91.89
2023-01-31T09:34:59.531Z,91.89
2023-01-31T09:35:59.468Z,91.80
2023-01-31T09:36:59.457Z,92.09
2023-01-31T09:37:59.343Z,92.09
2023-01-31T09:38:59.282Z,91.80
2023-01-31T09:39:59.221Z,91.80
2023-01-31T09:40:59.152Z,91.80
2023-01-31T09:41:59.094Z,91.80
2023-01-31T09:42:59.070Z,91.80
2023-01-31T09:43:58.975Z,91.89
2023-01-31T09:44:58.912Z,91.99
2023-01-31T09:45:58.847Z,91.99
2023-01-31T09:46:58.912Z,91.89
2023-01-31T09:47:58.728Z,91.99
2023-01-31T09:48:58.658Z,91.99
2023-01-31T09:49:58.621Z,91.99
2023-01-31T09:50:58.543Z,91.99
2023-01-31T09:51:58.510Z,91.89
2023-01-31T09:52:58.415Z,91.80
2023-01-31T09:53:58.352Z,91.80
2023-01-31T09:54:58.297Z,91.99
2023-01-31T09:55:58.231Z,91.99
2023-01-31T09:56:58.171Z,91.80
2023-01-31T09:57:58.106Z,91.99
2023-01-31T09:58:58.054Z,91.80
2023-01-31T09:59:57.985Z,91.99
2023-01-31T10:00:58.477Z,91.80
2023-01-31T10:01:59.202Z,91.99
2023-01-31T10:02:57.794Z,91.99
2023-01-31T10:03:57.857Z,91.80
2023-01-31T10:04:57.673Z,91.71
2023-01-31T10:05:57.632Z,91.80
2023-01-31T10:06:57.551Z,91.99
2023-01-31T10:07:57.496Z,91.80
2023-01-31T10:08:57.439Z,91.80
2023-01-31T10:09:57.360Z,91.89
2023-01-31T10:10:57.306Z,91.89
2023-01-31T10:11:57.242Z,92.18
2023-01-31T10:12:57.176Z,92.18
2023-01-31T10:13:57.122Z,91.99
2023-01-31T10:14:57.055Z,92.28
2023-01-31T10:15:56.994Z,91.99
2023-01-31T10:16:56.926Z,91.99
2023-01-31T10:17:56.963Z,91.99
2023-01-31T10:18:56.815Z,92.18
2023-01-31T10:19:56.747Z,91.89
2023-01-31T10:20:56.680Z,92.18
2023-01-31T10:21:56.651Z,91.99
2023-01-31T10:22:56.567Z,92.09
2023-01-31T10:23:56.497Z,91.99
2023-01-31T10:24:56.439Z,92.18
2023-01-31T10:25:56.946Z,92.18
2023-01-31T10:26:56.335Z,92.18
2023-01-31T10:27:56.250Z,91.99
2023-01-31T10:28:56.194Z,92.18
2023-01-31T10:29:56.129Z,92.18
2023-01-31T10:30:56.091Z,92.09
2023-01-31T10:31:56.039Z,92.09
2023-01-31T10:32:55.946Z,91.89
2023-01-31T10:33:55.879Z,91.99
2023-01-31T10:34:55.822Z,92.18
2023-01-31T10:35:55.760Z,92.18
2023-01-31T10:36:55.698Z,91.99
2023-01-31T10:37:55.647Z,92.18
2023-01-31T10:38:55.573Z,91.99
2023-01-31T10:39:55.507Z,91.89
2023-01-31T10:40:55.445Z,92.18
2023-01-31T10:41:55.387Z,92.18
2023-01-31T10:42:55.323Z,91.99
2023-01-31T10:43:55.261Z,92.09
2023-01-31T10:44:55.200Z,92.09
2023-01-31T10:45:55.210Z,92.09
2023-01-31T10:46:55.084Z,92.28
2023-01-31T10:47:55.014Z,91.99
2023-01-31T10:48:54.963Z,92.18
2023-01-31T10:49:54.895Z,92.28
2023-01-31T10:50:54.829Z,91.89
2023-01-31T10:51:54.769Z,91.71
2023-01-31T10:52:54.713Z,92.09
2023-01-31T10:53:54.667Z,92.09
2023-01-31T10:54:54.595Z,91.99
2023-01-31T10:55:54.531Z,92.18
2023-01-31T10:56:54.466Z,92.18
2023-01-31T10:57:54.395Z,92.09
2023-01-31T10:58:54.415Z,92.18
2023-01-31T10:59:54.283Z,92.18
2023-01-31T11:00:54.237Z,91.99
2023-01-31T11:01:54.245Z,92.18
2023-01-31T11:02:54.091Z,91.99
2023-01-31T11:03:54.032Z,92.18
2023-01-31T11:04:53.965Z,91.89
2023-01-31T11:05:53.909Z,91.89
2023-01-31T11:06:53.852Z,92.18
2023-01-31T11:07:53.781Z,92.18
2023-01-31T11:08:53.718Z,91.99
2023-01-31T11:09:53.667Z,91.89
2023-01-31T11:10:53.601Z,91.99
2023-01-31T11:11:53.536Z,92.28
2023-01-31T11:12:53.480Z,92.09
2023-01-31T11:13:53.416Z,91.99
2023-01-31T11:14:54.076Z,91.89
2023-01-31T11:15:53.285Z,92.09
2023-01-31T11:16:53.246Z,91.99
2023-01-31T11:17:53.164Z,91.89
2023-01-31T11:18:53.132Z,92.18
2023-01-31T11:19:53.043Z,91.80
2023-01-31T11:20:52.976Z,91.89
2023-01-31T11:21:52.922Z,92.09
2023-01-31T11:22:52.881Z,91.89
2023-01-31T11:23:52.805Z,92.09
2023-01-31T11:24:52.737Z,91.89
2023-01-31T11:25:52.679Z,91.99
2023-01-31T11:26:52.624Z,91.99
2023-01-31T11:27:52.552Z,91.80
2023-01-31T11:28:52.490Z,91.80
2023-01-31T11:29:52.421Z,92.09
2023-01-31T11:30:52.425Z,92.09
2023-01-31T11:31:52.360Z,91.89
2023-01-31T11:32:52.242Z,91.89
2023-01-31T11:33:52.180Z,91.80
2023-01-31T11:34:52.124Z,91.89
2023-01-31T11:35:52.060Z,92.09
2023-01-31T11:36:52.011Z,91.80
2023-01-31T11:37:53.650Z,91.89
2023-01-31T11:38:51.879Z,91.80
2023-01-31T11:39:51.805Z,92.09
2023-01-31T11:40:51.749Z,91.80
2023-01-31T11:41:51.702Z,91.71
2023-01-31T11:42:51.628Z,92.18
2023-01-31T11:43:51.558Z,91.89
2023-01-31T11:44:51.523Z,92.09
2023-01-31T11:45:51.484Z,92.09
2023-01-31T11:46:51.387Z,91.80
2023-01-31T11:47:51.330Z,91.80
2023-01-31T11:48:51.251Z,92.09
2023-01-31T11:49:51.203Z,91.80
2023-01-31T11:50:51.145Z,91.80
2023-01-31T11:51:51.069Z,92.09
2023-01-31T11:52:51.006Z,92.09
2023-01-31T11:53:50.947Z,91.80
2023-01-31T11:54:50.901Z,91.80
2023-01-31T11:55:50.829Z,92.09
2023-01-31T11:56:50.760Z,92.18
2023-01-31T11:57:50.709Z,91.71
2023-01-31T11:58:50.644Z,92.09
2023-01-31T11:59:50.592Z,92.09
2023-01-31T12:00:50.514Z,92.09
2023-01-31T12:01:50.451Z,91.89
2023-01-31T12:02:50.393Z,91.89
2023-01-31T12:04:01.991Z,92.09
2023-01-31T12:04:50.271Z,91.89
2023-01-31T12:05:50.207Z,91.80
2023-01-31T12:06:50.140Z,91.94
2023-01-31T12:07:50.109Z,91.71
2023-01-31T12:08:50.020Z,91.71
2023-01-31T12:09:49.970Z,91.71
2023-01-31T12:10:49.903Z,91.89
2023-01-31T12:11:49.831Z,91.89
2023-01-31T12:12:49.773Z,91.99
2023-01-31T12:13:49.741Z,91.85
2023-01-31T12:14:49.653Z,91.89
2023-01-31T12:15:49.595Z,92.13
2023-01-31T12:16:49.556Z,91.94
2023-01-31T12:17:49.478Z,91.89
2023-01-31T12:18:49.407Z,91.80
2023-01-31T12:19:49.351Z,91.85
2023-01-31T12:20:49.280Z,91.80
2023-01-31T12:21:49.222Z,91.85
2023-01-31T12:22:49.172Z,91.85
2023-01-31T12:23:51.393Z,92.04
2023-01-31T12:24:49.041Z,91.94
2023-01-31T12:25:48.970Z,91.94
2023-01-31T12:26:48.987Z,91.89
2023-01-31T12:27:48.862Z,91.94
2023-01-31T12:28:48.790Z,92.13
2023-01-31T12:29:48.739Z,92.04
2023-01-31T12:30:48.754Z,92.18
2023-01-31T12:31:48.701Z,91.94
2023-01-31T12:32:48.543Z,92.13
2023-01-31T12:33:48.508Z,92.04
2023-01-31T12:35:00.163Z,92.23
2023-01-31T12:35:48.361Z,91.85
2023-01-31T12:36:48.314Z,91.85
2023-01-31T12:37:48.234Z,91.94
2023-01-31T12:38:48.191Z,91.94
2023-01-31T12:39:48.112Z,92.13
2023-01-31T12:40:48.047Z,92.23
2023-01-31T12:41:47.986Z,92.23
2023-01-31T12:42:47.921Z,92.04
2023-01-31T12:43:47.864Z,91.85
2023-01-31T12:44:47.835Z,91.38
2023-01-31T12:45:47.812Z,91.19
2023-01-31T12:46:50.651Z,91.85
2023-01-31T12:47:47.622Z,91.19
2023-01-31T12:49:08.545Z,91.75
2023-01-31T12:49:49.501Z,91.75
2023-01-31T12:50:47.459Z,91.47
2023-01-31T12:51:47.386Z,91.47